createdAt,value
2019-04-20T05:26:36.317Z,6.47
2019-04-20T05:29:01.368Z,6.44
2019-04-20T05:31:34.881Z,6.47
2019-04-20T05:34:19.926Z,6.51
2019-04-20T05:36:53.028Z,6.60
2019-04-20T05:39:29.788Z,6.68
2019-04-20T05:41:53.240Z,6.70
2019-04-20T05:44:26.272Z,6.81
2019-04-20T05:47:09.277Z,6.90
2019-04-20T05:49:34.890Z,6.92
2019-04-20T05:52:22.129Z,6.90
2019-04-20T05:54:48.994Z,6.93
2019-04-20T05:57:22.319Z,7.03
2019-04-20T05:59:54.310Z,7.00
2019-04-20T06:02:18.426Z,7.06
2019-04-20T06:05:00.508Z,7.03
2019-04-20T06:07:27.071Z,7.24
2019-04-20T06:09:59.664Z,7.23
2019-04-20T06:12:32.025Z,7.36
2019-04-20T06:15:15.506Z,7.39
2019-04-20T06:17:59.618Z,7.39
2019-04-20T06:20:39.142Z,7.52
2019-04-20T06:23:34.571Z,7.57
2019-04-20T06:26:12.735Z,7.65
2019-04-20T06:28:26.730Z,7.64
2019-04-20T06:30:59.488Z,7.73
2019-04-20T06:34:30.139Z,7.77
2019-04-20T06:36:52.668Z,7.88
2019-04-20T06:39:27.726Z,7.92
2019-04-20T06:42:07.195Z,8.07
2019-04-20T06:44:33.215Z,8.00
2019-04-20T06:47:15.475Z,8.16
2019-04-20T06:49:32.950Z,8.32
2019-04-20T06:55:08.732Z,8.41
2019-04-20T06:57:45.085Z,8.42
2019-04-20T07:00:35.050Z,8.54
2019-04-20T07:02:53.057Z,8.68
2019-04-20T07:08:06.835Z,8.93
2019-04-20T07:10:37.609Z,9.01
2019-04-20T07:12:55.466Z,8.98
2019-04-20T07:15:36.541Z,8.99
2019-04-20T07:18:16.956Z,9.07
2019-04-20T07:21:00.498Z,9.10
2019-04-20T07:23:57.628Z,9.20
2019-04-20T07:26:12.829Z,9.37
2019-04-20T07:28:51.185Z,9.41
2019-04-20T07:31:08.671Z,9.53
2019-04-20T07:33:49.599Z,9.51
2019-04-20T07:36:21.514Z,9.58
2019-04-20T07:39:00.708Z,9.74
2019-04-20T07:41:26.330Z,9.80
2019-04-20T07:44:04.431Z,9.93
2019-04-20T07:46:43.875Z,10.08
2019-04-20T07:48:58.054Z,10.11
2019-04-20T07:51:16.223Z,10.20
2019-04-20T07:54:10.605Z,10.14
2019-04-20T07:56:37.510Z,10.18
2019-04-20T07:58:52.679Z,10.32
2019-04-20T08:01:52.982Z,10.45
2019-04-20T08:04:28.839Z,10.59
2019-04-20T08:06:51.874Z,10.62
2019-04-20T08:09:25.806Z,10.77
2019-04-20T08:12:22.132Z,10.90
2019-04-20T08:15:01.429Z,11.06
2019-04-20T08:17:48.571Z,11.11
2019-04-20T08:19:50.998Z,11.16
2019-04-20T08:22:27.077Z,11.17
2019-04-20T08:24:52.256Z,11.28
2019-04-20T08:27:14.846Z,11.57
2019-04-20T08:30:01.860Z,11.58
2019-04-20T08:33:05.227Z,11.64
2019-04-20T08:35:51.265Z,11.81
2019-04-20T08:38:36.890Z,11.99
2019-04-20T08:40:44.161Z,12.05
2019-04-20T08:43:32.708Z,12.30
2019-04-20T08:45:56.373Z,12.30
2019-04-20T08:48:23.154Z,12.36
2019-04-20T08:50:53.250Z,12.46
2019-04-20T08:53:43.081Z,12.49
2019-04-20T08:55:53.438Z,12.51
2019-04-20T08:58:11.420Z,12.65
2019-04-20T09:00:50.013Z,12.79
2019-04-20T09:03:24.527Z,12.84
2019-04-20T09:05:57.795Z,12.80
2019-04-20T09:08:27.473Z,12.78
2019-04-20T09:11:10.233Z,12.93
2019-04-20T09:13:35.344Z,13.00
2019-04-20T09:15:57.896Z,13.17
2019-04-20T09:18:42.127Z,13.04
2019-04-20T09:21:13.722Z,13.16
2019-04-20T09:23:52.197Z,13.11
2019-04-20T09:26:26.917Z,13.24
2019-04-20T09:28:59.214Z,13.28
2019-04-20T09:31:39.232Z,13.19
2019-04-20T09:34:23.290Z,13.43
2019-04-20T09:37:11.526Z,13.57
2019-04-20T09:39:53.307Z,13.45
2019-04-20T09:42:33.769Z,13.68
2019-04-20T09:45:06.273Z,13.63
2019-04-20T09:47:43.321Z,13.74
2019-04-20T09:50:27.783Z,13.71
2019-04-20T09:52:59.241Z,13.76
2019-04-20T09:55:29.525Z,13.85
2019-04-20T09:58:02.443Z,13.84
2019-04-20T10:00:36.946Z,13.92
2019-04-20T10:02:52.615Z,14.11
2019-04-20T10:05:27.396Z,14.08
2019-04-20T10:08:01.227Z,13.98
2019-04-20T10:10:35.970Z,14.03
2019-04-20T10:13:02.508Z,14.05
2019-04-20T10:15:33.092Z,14.08
2019-04-20T10:18:03.768Z,14.37
2019-04-20T10:20:37.916Z,14.41
2019-04-20T10:23:06.824Z,14.42
2019-04-20T10:25:38.420Z,14.54
2019-04-20T10:28:09.434Z,14.67
2019-04-20T10:30:40.840Z,14.61
2019-04-20T10:33:11.404Z,14.69
2019-04-20T10:35:41.947Z,14.67
2019-04-20T10:38:17.944Z,14.77
2019-04-20T10:40:58.474Z,14.89
2019-04-20T10:43:21.871Z,15.08
2019-04-20T10:45:53.055Z,15.12
2019-04-20T10:48:23.655Z,15.06
2019-04-20T10:50:54.825Z,14.98
2019-04-20T10:53:25.996Z,15.18
2019-04-20T10:55:57.759Z,15.01
2019-04-20T10:58:29.584Z,15.13
2019-04-20T11:01:00.248Z,15.11
2019-04-20T11:03:30.728Z,15.36
2019-04-20T11:06:02.717Z,15.31
2019-04-20T11:08:34.752Z,15.30
2019-04-20T11:11:13.037Z,15.31
2019-04-20T11:13:37.771Z,15.48
2019-04-20T11:16:08.595Z,15.41
2019-04-20T11:18:39.761Z,15.69
2019-04-20T11:21:11.452Z,15.67
2019-04-20T11:23:42.454Z,15.61
2019-04-20T11:26:14.078Z,15.61
2019-04-20T11:28:44.647Z,15.77
2019-04-20T11:31:16.465Z,15.76
2019-04-20T11:33:48.051Z,15.83
2019-04-20T11:36:19.188Z,15.95
2019-04-20T11:38:51.097Z,15.84
2019-04-20T11:41:27.168Z,15.94
2019-04-20T11:43:53.976Z,16.01
2019-04-20T11:46:24.986Z,16.07
2019-04-20T11:48:55.476Z,16.19
2019-04-20T11:51:26.038Z,16.18
2019-04-20T11:53:56.574Z,16.18
2019-04-20T11:56:33.380Z,16.38
2019-04-20T11:59:00.843Z,16.33
2019-04-20T12:01:49.368Z,16.45
2019-04-20T12:04:27.107Z,16.50
2019-04-20T12:06:48.844Z,16.55
2019-04-20T12:09:19.359Z,16.69
2019-04-20T12:12:02.140Z,16.94
2019-04-20T12:14:23.183Z,16.97
2019-04-20T12:16:53.732Z,17.21
2019-04-20T12:19:24.846Z,17.50
2019-04-20T12:21:55.831Z,17.54
2019-04-20T12:24:26.392Z,17.78
2019-04-20T12:26:56.843Z,18.17
2019-04-20T12:29:27.977Z,18.39
2019-04-20T12:32:02.238Z,19.62
2019-04-20T12:34:30.820Z,21.35
2019-04-20T12:37:01.311Z,22.47
2019-04-20T12:39:33.134Z,24.25
2019-04-20T12:42:07.539Z,25.38
2019-04-20T12:44:36.033Z,27.21
2019-04-20T12:47:07.669Z,26.83
2019-04-20T12:49:38.253Z,26.68
2019-04-20T12:52:08.728Z,27.87
2019-04-20T12:54:42.587Z,28.72
2019-04-20T12:57:11.439Z,26.93
2019-04-20T12:59:44.328Z,24.81
2019-04-20T13:02:15.417Z,24.86
2019-04-20T13:04:46.143Z,24.93
2019-04-20T13:07:17.705Z,26.06
2019-04-20T13:09:54.789Z,26.08
2019-04-20T13:12:41.014Z,27.46
2019-04-20T13:15:36.437Z,28.13
2019-04-20T13:18:07.702Z,28.27
2019-04-20T13:20:39.608Z,27.93
2019-04-20T13:23:10.967Z,27.89
2019-04-20T13:25:41.614Z,28.29
2019-04-20T13:28:12.866Z,27.31
2019-04-20T13:30:43.899Z,27.20
2019-04-20T13:33:14.354Z,28.78
2019-04-20T13:35:46.108Z,27.90
2019-04-20T13:38:16.741Z,27.66
2019-04-20T13:40:48.168Z,28.18
2019-04-20T13:43:19.688Z,28.33
2019-04-20T13:45:50.986Z,28.42
2019-04-20T13:48:21.583Z,27.83
2019-04-20T13:50:52.105Z,27.72
2019-04-20T13:53:23.407Z,29.22
2019-04-20T13:55:54.124Z,28.51
2019-04-20T13:59:01.939Z,28.96
2019-04-20T14:01:39.023Z,28.32
2019-04-20T14:04:15.581Z,27.83
2019-04-20T14:06:47.832Z,28.19
2019-04-20T14:09:19.392Z,27.57
2019-04-20T14:11:51.638Z,29.28
2019-04-20T14:14:23.476Z,27.58
2019-04-20T14:16:54.790Z,28.90
2019-04-20T14:19:25.393Z,28.30
2019-04-20T14:21:56.450Z,29.01
2019-04-20T14:24:27.154Z,27.40
2019-04-20T14:26:58.944Z,28.32
2019-04-20T14:29:30.561Z,28.41
2019-04-20T14:32:03.526Z,30.06
2019-04-20T14:34:33.429Z,31.26
2019-04-20T14:37:03.083Z,30.54
2019-04-20T14:39:32.514Z,31.35
2019-04-20T14:42:02.588Z,30.85
2019-04-20T14:44:32.160Z,29.87
2019-04-20T14:47:01.589Z,29.99
2019-04-20T14:49:32.552Z,28.63
2019-04-20T14:52:03.129Z,29.57
2019-04-20T14:54:33.199Z,30.24
2019-04-20T14:57:03.430Z,29.64
2019-04-20T14:59:37.761Z,30.43
2019-04-20T15:02:10.495Z,31.22
2019-04-20T15:04:41.242Z,30.29
2019-04-20T15:07:10.927Z,31.23
2019-04-20T15:09:40.668Z,30.50
2019-04-20T15:12:10.885Z,30.36
2019-04-20T15:14:40.852Z,29.22
2019-04-20T15:17:12.169Z,29.76
2019-04-20T15:19:59.779Z,29.08
2019-04-20T15:22:29.784Z,29.37
2019-04-20T15:24:59.959Z,28.81
2019-04-20T15:27:30.332Z,29.56
2019-04-20T15:30:00.330Z,30.22
2019-04-20T15:32:31.242Z,28.71
2019-04-20T15:35:00.807Z,29.33
2019-04-20T15:37:30.925Z,30.26
2019-04-20T15:40:01.225Z,29.45
2019-04-20T15:42:30.722Z,30.05
2019-04-20T15:45:01.137Z,28.64
2019-04-20T15:47:31.992Z,28.66
2019-04-20T15:50:02.302Z,29.14
2019-04-20T15:52:39.960Z,29.96
2019-04-20T15:55:10.185Z,29.51
2019-04-20T15:57:34.889Z,30.18
2019-04-20T16:00:06.671Z,30.00
2019-04-20T16:02:59.139Z,30.40
2019-04-20T16:05:53.657Z,29.11
2019-04-20T16:08:26.127Z,30.33
2019-04-20T16:10:57.112Z,29.75
2019-04-20T16:13:35.086Z,28.78
2019-04-20T16:15:58.148Z,28.65
2019-04-20T16:18:27.600Z,27.99
2019-04-20T16:21:05.553Z,28.51
2019-04-20T16:23:30.426Z,28.54
2019-04-20T16:26:05.925Z,27.99
2019-04-20T16:28:35.486Z,28.09
2019-04-20T16:31:08.049Z,29.06
2019-04-20T16:33:36.708Z,28.26
2019-04-20T16:36:06.359Z,27.73
2019-04-20T16:38:37.209Z,28.09
2019-04-20T16:41:06.729Z,27.66
2019-04-20T16:43:42.546Z,27.32
2019-04-20T16:46:10.925Z,27.01
2019-04-20T16:48:42.153Z,27.29
2019-04-20T16:51:13.218Z,27.97
2019-04-20T16:53:43.875Z,28.38
2019-04-20T16:56:16.105Z,27.45
2019-04-20T16:58:49.601Z,27.15
2019-04-20T17:01:19.383Z,26.74
2019-04-20T17:03:59.847Z,25.34
2019-04-20T17:06:22.792Z,24.97
2019-04-20T17:08:54.531Z,24.94
2019-04-20T17:11:25.728Z,25.92
2019-04-20T17:13:59.583Z,25.38
2019-04-20T17:16:28.647Z,24.03
2019-04-20T17:18:59.635Z,23.98
2019-04-20T17:21:31.955Z,22.63
2019-04-20T17:24:03.565Z,22.45
2019-04-20T17:26:43.612Z,21.49
2019-04-20T17:29:19.856Z,20.96
2019-04-20T17:32:01.277Z,20.71
2019-04-20T17:34:50.596Z,20.41
2019-04-20T17:37:04.549Z,19.95
2019-04-20T17:39:45.345Z,18.98
2019-04-20T17:42:23.749Z,18.52
2019-04-20T17:44:49.278Z,18.19
2019-04-20T17:47:31.298Z,17.59
2019-04-20T17:50:06.920Z,17.24
2019-04-20T17:52:40.373Z,16.98
2019-04-20T17:54:56.013Z,16.69
2019-04-20T17:57:26.432Z,16.34
2019-04-20T18:00:14.808Z,16.04
2019-04-20T18:03:04.572Z,16.06
2019-04-20T18:05:49.926Z,15.91
2019-04-20T18:08:26.720Z,15.76
2019-04-20T18:10:50.718Z,15.48
2019-04-20T18:13:18.477Z,15.09
2019-04-20T18:15:59.247Z,14.83
2019-04-20T18:18:47.891Z,14.72
2019-04-20T18:21:28.754Z,14.61
2019-04-20T18:24:00.415Z,14.47
2019-04-20T18:26:47.957Z,14.28
2019-04-20T18:29:30.795Z,13.96
2019-04-20T18:31:45.319Z,13.81
2019-04-20T18:34:34.200Z,13.75
2019-04-20T18:37:06.453Z,13.47
2019-04-20T18:39:43.796Z,13.41
2019-04-20T18:42:19.837Z,13.19
2019-04-20T18:45:03.865Z,13.15
2019-04-20T18:47:34.696Z,13.03
2019-04-20T18:49:58.561Z,13.03
2019-04-20T18:52:19.821Z,13.01
2019-04-20T18:54:53.629Z,12.99
2019-04-20T18:57:27.277Z,13.02
2019-04-20T18:59:56.846Z,12.85
2019-04-20T19:02:33.558Z,12.62
2019-04-20T19:05:03.087Z,12.53
2019-04-20T19:07:40.118Z,12.66
2019-04-20T19:10:14.545Z,12.48
2019-04-20T19:12:49.353Z,12.47
2019-04-20T19:15:56.265Z,12.35
2019-04-20T19:18:47.762Z,12.08
2019-04-20T19:21:03.447Z,11.87
2019-04-20T19:23:36.660Z,11.93
2019-04-20T19:26:11.988Z,11.88
2019-04-20T19:28:45.244Z,11.78
2019-04-20T19:31:25.257Z,11.52
2019-04-20T19:34:09.044Z,11.40
2019-04-20T19:36:28.100Z,11.51
2019-04-20T19:39:01.292Z,11.44
2019-04-20T19:41:31.979Z,11.38
2019-04-20T19:44:09.165Z,11.32
2019-04-20T19:47:03.276Z,11.15
2019-04-20T19:49:08.176Z,10.91
2019-04-20T19:51:55.365Z,10.94
2019-04-20T19:54:27.801Z,11.04
2019-04-20T19:56:52.420Z,11.12
2019-04-20T19:59:16.053Z,10.93
2019-04-20T20:01:39.884Z,10.92
2019-04-20T20:04:11.931Z,10.78
2019-04-20T20:06:49.016Z,10.84
2019-04-20T20:09:17.790Z,10.69
2019-04-20T20:11:48.494Z,10.67
2019-04-20T20:14:30.588Z,10.41
2019-04-20T20:17:12.920Z,10.42
2019-04-20T20:19:38.529Z,10.35
2019-04-20T20:22:08.978Z,10.35
2019-04-20T20:24:29.201Z,10.39
2019-04-20T20:27:04.198Z,10.25
2019-04-20T20:29:38.368Z,10.20
2019-04-20T20:32:18.751Z,10.21
2019-04-20T20:34:42.184Z,10.10
2019-04-20T20:37:11.121Z,10.14
2019-04-20T20:39:51.119Z,10.03
2019-04-20T20:42:23.587Z,9.98
2019-04-20T20:44:52.693Z,9.86
2019-04-20T20:47:41.124Z,9.89
2019-04-20T20:50:14.741Z,10.01
2019-04-20T20:52:39.379Z,9.97
2019-04-20T20:55:06.099Z,9.90
2019-04-20T20:57:38.529Z,9.97
2019-04-20T21:00:06.256Z,9.93
2019-04-20T21:02:44.095Z,10.01
2019-04-20T21:05:05.993Z,9.91
2019-04-20T21:07:36.599Z,9.79
2019-04-20T21:10:08.307Z,9.64
2019-04-20T21:12:46.500Z,9.56
2019-04-20T21:15:17.185Z,9.47
2019-04-20T21:18:10.862Z,9.57
2019-04-20T21:20:38.133Z,9.54
2019-04-20T21:23:03.883Z,9.48
2019-04-20T21:25:36.053Z,9.51
2019-04-20T21:28:00.871Z,9.44
2019-04-20T21:30:38.020Z,9.41
2019-04-20T21:33:05.557Z,9.42
2019-04-20T21:35:40.670Z,9.23
2019-04-20T21:38:11.410Z,9.17
2019-04-20T21:40:44.994Z,9.16
2019-04-20T21:43:13.228Z,9.13
2019-04-20T21:45:54.886Z,9.10
2019-04-20T21:48:40.568Z,9.13
2019-04-20T21:51:14.003Z,9.17
2019-04-20T21:53:26.617Z,9.04
2019-04-20T21:55:55.244Z,8.96
2019-04-20T21:58:32.490Z,8.81
2019-04-20T22:01:10.792Z,8.77
2019-04-20T22:03:32.066Z,8.84
2019-04-20T22:06:10.731Z,8.81
2019-04-20T22:08:45.943Z,8.79
2019-04-20T22:11:17.798Z,8.68
2019-04-20T22:13:49.464Z,8.64
2019-04-20T22:16:22.695Z,8.50
2019-04-20T22:19:14.607Z,8.50
2019-04-20T22:21:46.282Z,8.43
2019-04-20T22:24:33.080Z,8.33
2019-04-20T22:26:58.919Z,8.37
2019-04-20T22:29:23.998Z,8.33
2019-04-20T22:32:00.505Z,8.16
2019-04-20T22:34:28.435Z,8.01
2019-04-20T22:36:59.905Z,8.03
2019-04-20T22:39:39.708Z,8.00
2019-04-20T22:42:09.710Z,7.99
2019-04-20T22:44:39.272Z,8.06
2019-04-20T22:47:16.105Z,7.95
2019-04-20T22:50:05.618Z,8.01
2019-04-20T22:52:32.526Z,7.97
2019-04-20T22:55:12.736Z,8.06
2019-04-20T22:57:38.759Z,8.03
2019-04-20T22:59:59.645Z,7.93
2019-04-20T23:02:26.438Z,7.86
2019-04-20T23:04:57.185Z,7.79
2019-04-20T23:07:28.480Z,7.84
2019-04-20T23:10:01.556Z,7.74
2019-04-20T23:12:32.192Z,7.70
2019-04-20T23:15:04.638Z,7.64
2019-04-20T23:17:39.973Z,7.59
2019-04-20T23:20:15.159Z,7.68
2019-04-20T23:22:43.970Z,7.60
2019-04-20T23:25:13.312Z,7.54
2019-04-20T23:27:44.024Z,7.43
2019-04-20T23:30:23.358Z,7.35
2019-04-20T23:32:46.898Z,7.27
2019-04-20T23:35:20.145Z,7.21
2019-04-20T23:37:50.735Z,7.14
2019-04-20T23:40:21.693Z,7.12
2019-04-20T23:42:58.042Z,7.10
2019-04-20T23:45:52.749Z,7.08
2019-04-20T23:48:32.413Z,7.11
2019-04-20T23:51:24.873Z,7.04
2019-04-20T23:53:43.866Z,7.10
2019-04-20T23:56:05.923Z,7.01
2019-04-20T23:58:42.927Z,6.98
